sensor_id;sensor_type;location;lat;lon;timestamp;temperature;humidity
12421;DHT22;6275;43.688;1.408;2022-07-23T18:10:30;27.20;70.70
12421;DHT22;6275;43.688;1.408;2022-07-23T18:12:57;27.20;73.60
12421;DHT22;6275;43.688;1.408;2022-07-23T18:15:25;27.20;71.40
12421;DHT22;6275;43.688;1.408;2022-07-23T18:17:52;27.10;74.50
12421;DHT22;6275;43.688;1.408;2022-07-23T18:20:19;27.00;74.50
12421;DHT22;6275;43.688;1.408;2022-07-23T18:22:46;26.80;78.40
12421;DHT22;6275;43.688;1.408;2022-07-23T18:25:13;26.70;79.80
12421;DHT22;6275;43.688;1.408;2022-07-23T18:27:40;26.50;79.10
12421;DHT22;6275;43.688;1.408;2022-07-23T18:30:14;26.50;76.20
12421;DHT22;6275;43.688;1.408;2022-07-23T18:32:41;26.40;77.50
12421;DHT22;6275;43.688;1.408;2022-07-23T18:35:08;26.30;81.80
12421;DHT22;6275;43.688;1.408;2022-07-23T18:37:38;26.00;87.80
12421;DHT22;6275;43.688;1.408;2022-07-23T18:40:08;25.90;86.50
12421;DHT22;6275;43.688;1.408;2022-07-23T18:42:35;25.80;83.30
12421;DHT22;6275;43.688;1.408;2022-07-23T18:45:03;25.70;90.50
12421;DHT22;6275;43.688;1.408;2022-07-23T18:47:34;25.60;85.90
12421;DHT22;6275;43.688;1.408;2022-07-23T18:50:04;25.50;88.30
12421;DHT22;6275;43.688;1.408;2022-07-23T18:52:32;25.30;91.50
12421;DHT22;6275;43.688;1.408;2022-07-23T18:54:59;25.10;92.30
12421;DHT22;6275;43.688;1.408;2022-07-23T18:57:26;25.00;91.10
12421;DHT22;6275;43.688;1.408;2022-07-23T18:59:53;25.00;93.10
12421;DHT22;6275;43.688;1.408;2022-07-23T19:02:20;24.80;93.90
12421;DHT22;6275;43.688;1.408;2022-07-23T19:04:47;24.80;92.50
12421;DHT22;6275;43.688;1.408;2022-07-23T19:07:14;24.80;91.80
12421;DHT22;6275;43.688;1.408;2022-07-23T19:09:41;24.70;91.90
12421;DHT22;6275;43.688;1.408;2022-07-23T19:12:09;24.70;92.20
12421;DHT22;6275;43.688;1.408;2022-07-23T19:14:36;24.60;93.30
12421;DHT22;6275;43.688;1.408;2022-07-23T19:17:03;24.50;93.60
12421;DHT22;6275;43.688;1.408;2022-07-23T19:19:30;24.50;94.30
12421;DHT22;6275;43.688;1.408;2022-07-23T19:21:57;24.50;94.10
12421;DHT22;6275;43.688;1.408;2022-07-23T19:24:24;24.50;94.70
12421;DHT22;6275;43.688;1.408;2022-07-23T19:26:51;24.40;95.70
12421;DHT22;6275;43.688;1.408;2022-07-23T19:29:18;24.20;95.70
12421;DHT22;6275;43.688;1.408;2022-07-23T19:31:45;24.10;96.90
12421;DHT22;6275;43.688;1.408;2022-07-23T19:34:12;23.90;97.40
12421;DHT22;6275;43.688;1.408;2022-07-23T19:36:40;23.90;96.20
12421;DHT22;6275;43.688;1.408;2022-07-23T19:39:07;23.90;96.90
12421;DHT22;6275;43.688;1.408;2022-07-23T19:41:34;23.80;96.10
12421;DHT22;6275;43.688;1.408;2022-07-23T19:44:01;23.60;97.60
12421;DHT22;6275;43.688;1.408;2022-07-23T19:46:28;23.50;98.60
12421;DHT22;6275;43.688;1.408;2022-07-23T19:48:56;23.50;99.90
12421;DHT22;6275;43.688;1.408;2022-07-23T19:51:23;23.30;99.90
12421;DHT22;6275;43.688;1.408;2022-07-23T19:53:50;23.20;99.90
12421;DHT22;6275;43.688;1.408;2022-07-23T19:56:17;23.20;99.90
12421;DHT22;6275;43.688;1.408;2022-07-23T19:58:55;23.30;99.90
12421;DHT22;6275;43.688;1.408;2022-07-23T20:01:24;23.30;99.90
12421;DHT22;6275;43.688;1.408;2022-07-23T20:03:51;23.30;99.90
12421;DHT22;6275;43.688;1.408;2022-07-23T20:06:18;23.30;99.90
12421;DHT22;6275;43.688;1.408;2022-07-23T20:08:45;23.00;99.90
12421;DHT22;6275;43.688;1.408;2022-07-23T20:11:12;22.90;99.90
12421;DHT22;6275;43.688;1.408;2022-07-23T20:13:39;22.70;99.90
12421;DHT22;6275;43.688;1.408;2022-07-23T20:16:07;22.60;99.90
12421;DHT22;6275;43.688;1.408;2022-07-23T20:18:34;22.70;99.90
12421;DHT22;6275;43.688;1.408;2022-07-23T20:21:02;22.80;99.90
12421;DHT22;6275;43.688;1.408;2022-07-23T20:23:29;23.00;99.90
12421;DHT22;6275;43.688;1.408;2022-07-23T20:25:56;23.10;99.90
12421;DHT22;6275;43.688;1.408;2022-07-23T20:28:23;23.00;99.90
12421;DHT22;6275;43.688;1.408;2022-07-23T20:30:51;22.90;99.90
12421;DHT22;6275;43.688;1.408;2022-07-23T20:33:21;23.00;99.90
12421;DHT22;6275;43.688;1.408;2022-07-23T20:35:48;22.90;99.90
12421;DHT22;6275;43.688;1.408;2022-07-23T20:38:15;22.70;99.90
12421;DHT22;6275;43.688;1.408;2022-07-23T20:40:43;22.80;99.90
12421;DHT22;6275;43.688;1.408;2022-07-23T20:43:13;22.80;99.90
12421;DHT22;6275;43.688;1.408;2022-07-23T20:45:41;22.80;99.90
12421;DHT22;6275;43.688;1.408;2022-07-23T20:48:10;22.70;99.90
12421;DHT22;6275;43.688;1.408;2022-07-23T20:50:38;22.60;99.90
12421;DHT22;6275;43.688;1.408;2022-07-23T20:53:06;22.60;99.90
12421;DHT22;6275;43.688;1.408;2022-07-23T20:55:34;22.60;99.90
12421;DHT22;6275;43.688;1.408;2022-07-23T20:58:02;22.50;99.90
12421;DHT22;6275;43.688;1.408;2022-07-23T21:00:29;22.50;99.90
12421;DHT22;6275;43.688;1.408;2022-07-23T21:02:56;22.40;99.90
12421;DHT22;6275;43.688;1.408;2022-07-23T21:05:23;22.30;99.90
12421;DHT22;6275;43.688;1.408;2022-07-23T21:07:50;22.20;99.90
12421;DHT22;6275;43.688;1.408;2022-07-23T21:10:17;22.00;99.90
12421;DHT22;6275;43.688;1.408;2022-07-23T21:12:44;22.10;99.90
12421;DHT22;6275;43.688;1.408;2022-07-23T21:15:11;22.10;99.90
12421;DHT22;6275;43.688;1.408;2022-07-23T21:17:39;22.20;99.90
12421;DHT22;6275;43.688;1.408;2022-07-23T21:20:11;22.10;99.90
12421;DHT22;6275;43.688;1.408;2022-07-23T21:22:38;22.00;99.90
12421;DHT22;6275;43.688;1.408;2022-07-23T21:25:06;21.90;99.90
12421;DHT22;6275;43.688;1.408;2022-07-23T21:27:38;21.80;99.90
12421;DHT22;6275;43.688;1.408;2022-07-23T21:30:06;21.90;99.90
12421;DHT22;6275;43.688;1.408;2022-07-23T21:32:33;22.00;99.90
12421;DHT22;6275;43.688;1.408;2022-07-23T21:35:07;22.00;99.90
12421;DHT22;6275;43.688;1.408;2022-07-23T21:37:34;21.90;99.90
12421;DHT22;6275;43.688;1.408;2022-07-23T21:40:02;21.90;99.90
12421;DHT22;6275;43.688;1.408;2022-07-23T21:42:29;21.90;99.90
12421;DHT22;6275;43.688;1.408;2022-07-23T21:44:56;22.00;99.90
12421;DHT22;6275;43.688;1.408;2022-07-23T21:47:24;22.00;99.90
12421;DHT22;6275;43.688;1.408;2022-07-23T21:49:50;22.00;99.90
12421;DHT22;6275;43.688;1.408;2022-07-23T21:52:17;21.70;99.90
12421;DHT22;6275;43.688;1.408;2022-07-23T21:54:44;21.60;99.90
12421;DHT22;6275;43.688;1.408;2022-07-23T21:57:11;21.60;99.90
12421;DHT22;6275;43.688;1.408;2022-07-23T21:59:38;21.70;99.90
12421;DHT22;6275;43.688;1.408;2022-07-23T22:02:05;21.90;99.90
12421;DHT22;6275;43.688;1.408;2022-07-23T22:04:32;22.00;99.90
12421;DHT22;6275;43.688;1.408;2022-07-23T22:07:00;22.10;99.90
12421;DHT22;6275;43.688;1.408;2022-07-23T22:09:26;22.10;99.90
12421;DHT22;6275;43.688;1.408;2022-07-23T22:11:53;22.00;99.90
12421;DHT22;6275;43.688;1.408;2022-07-23T22:14:20;22.00;99.90
12421;DHT22;6275;43.688;1.408;2022-07-23T22:16:47;22.00;99.90
12421;DHT22;6275;43.688;1.408;2022-07-23T22:19:14;21.90;99.90
12421;DHT22;6275;43.688;1.408;2022-07-23T22:21:41;22.00;99.90
12421;DHT22;6275;43.688;1.408;2022-07-23T22:24:13;22.00;99.90
12421;DHT22;6275;43.688;1.408;2022-07-23T22:26:40;22.00;99.90
12421;DHT22;6275;43.688;1.408;2022-07-23T22:29:08;21.90;99.90
12421;DHT22;6275;43.688;1.408;2022-07-23T22:31:35;22.00;99.90
12421;DHT22;6275;43.688;1.408;2022-07-23T22:34:03;22.20;99.90
12421;DHT22;6275;43.688;1.408;2022-07-23T22:36:30;22.30;99.90
12421;DHT22;6275;43.688;1.408;2022-07-23T22:38:57;22.30;99.90
12421;DHT22;6275;43.688;1.408;2022-07-23T22:41:24;22.20;99.90
12421;DHT22;6275;43.688;1.408;2022-07-23T22:43:51;22.20;99.90
12421;DHT22;6275;43.688;1.408;2022-07-23T22:46:18;22.10;99.90
12421;DHT22;6275;43.688;1.408;2022-07-23T22:48:45;22.10;99.90
12421;DHT22;6275;43.688;1.408;2022-07-23T22:51:13;22.10;99.90
12421;DHT22;6275;43.688;1.408;2022-07-23T22:53:47;22.00;99.90
12421;DHT22;6275;43.688;1.408;2022-07-23T22:56:14;22.00;99.90
12421;DHT22;6275;43.688;1.408;2022-07-23T22:58:41;21.90;99.90
12421;DHT22;6275;43.688;1.408;2022-07-23T23:01:08;21.80;99.90
12421;DHT22;6275;43.688;1.408;2022-07-23T23:03:35;21.90;99.90
12421;DHT22;6275;43.688;1.408;2022-07-23T23:06:02;21.80;99.90
12421;DHT22;6275;43.688;1.408;2022-07-23T23:08:30;21.80;99.90
12421;DHT22;6275;43.688;1.408;2022-07-23T23:10:57;21.80;99.90
12421;DHT22;6275;43.688;1.408;2022-07-23T23:13:24;21.70;99.90
12421;DHT22;6275;43.688;1.408;2022-07-23T23:15:51;21.50;99.90
12421;DHT22;6275;43.688;1.408;2022-07-23T23:18:18;21.40;99.90
12421;DHT22;6275;43.688;1.408;2022-07-23T23:20:45;21.40;99.90
12421;DHT22;6275;43.688;1.408;2022-07-23T23:23:12;21.40;99.90
12421;DHT22;6275;43.688;1.408;2022-07-23T23:25:39;21.30;99.90
12421;DHT22;6275;43.688;1.408;2022-07-23T23:28:06;21.20;99.90
12421;DHT22;6275;43.688;1.408;2022-07-23T23:30:33;21.30;99.90
12421;DHT22;6275;43.688;1.408;2022-07-23T23:33:00;21.30;99.90
12421;DHT22;6275;43.688;1.408;2022-07-23T23:35:27;21.30;99.90
12421;DHT22;6275;43.688;1.408;2022-07-23T23:37:54;21.20;99.90
12421;DHT22;6275;43.688;1.408;2022-07-23T23:40:21;21.20;99.90
12421;DHT22;6275;43.688;1.408;2022-07-23T23:42:48;21.30;99.90
12421;DHT22;6275;43.688;1.408;2022-07-23T23:45:15;21.20;99.90
12421;DHT22;6275;43.688;1.408;2022-07-23T23:47:42;21.30;99.90
12421;DHT22;6275;43.688;1.408;2022-07-23T23:50:10;21.30;99.90
12421;DHT22;6275;43.688;1.408;2022-07-23T23:52:37;21.20;99.90
12421;DHT22;6275;43.688;1.408;2022-07-23T23:55:05;21.20;99.90
12421;DHT22;6275;43.688;1.408;2022-07-23T23:57:32;21.20;99.90
12421;DHT22;6275;43.688;1.408;2022-07-23T23:59:59;21.10;99.90
